Terminal Aerodrome Forecast
Issued by NWS

Home | Current Version | Previous Version | Text Only | Print | Product List | Glossary On
Versions: 1 2 3 4 5 6 7 8 9 10 11 12 13 14 15 16
000
FTUS44 KLZK 291700
TAFPBF
TAF
KPBF 291728Z 2918/3018 18005KT P6SM VCTS SCT040CB BKN100
      TEMPO 2919/2923 5SM -TSRA BR BKN030CB
     FM292300 17008KT P6SM VCTS SCT050CB BKN100
     FM300600 16004KT P6SM FEW050 FEW100
     FM301200 VRB04KT P6SM SCT100 BKN250=

USA.gov is the U.S. government's official web portal to all federal, state and local government web resources and services.